PDT,Max TemperatureF,Mean TemperatureF,Min TemperatureF,Max Dew PointF,MeanDew PointF,Min DewpointF,Max Humidity, Mean Humidity, Min Humidity, Max Sea Level PressureIn, Mean Sea Level PressureIn, Min Sea Level PressureIn, Max VisibilityMiles, Mean VisibilityMiles, Min VisibilityMiles, Max Wind SpeedMPH, Mean Wind SpeedMPH, Max Gust SpeedMPH,PrecipitationIn, CloudCover, Events, WindDirDegrees
2013-3-1,60,56,50,52,49,48,100,81,67,30.39,30.34,30.30,10,9,3,13,6,20,0.03,8,Rain,160
2013-3-2,57,50,42,48,44,39,93,80,62,30.30,30.18,30.08,10,10,4,13,4,21,0.11,8,Rain,152
2013-3-3,48,42,34,38,34,31,97,76,50,30.33,30.29,30.23,10,10,10,7,3,,0.02,3,,103
2013-3-4,55,42,28,34,27,19,93,64,29,30.32,30.16,29.94,10,10,10,12,3,21,0.00,1,,43
2013-3-5,48,44,39,40,36,29,85,72,54,29.93,29.83,29.74,10,10,10,9,5,,0.00,6,,316
2013-3-6,44,42,41,42,40,38,97,89,82,29.92,29.74,29.60,10,9,4,13,8,,0.36,8,Rain,301
2013-3-7,52,46,37,42,40,37,97,84,57,30.11,30.04,29.91,10,9,6,7,3,,0.24,6,Rain,172
2013-3-8,52,42,33,41,37,33,100,89,61,30.26,30.14,30.09,10,8,1,12,2,,0.00,4,,326
2013-3-9,55,44,32,38,34,28,97,74,35,30.52,30.43,30.28,10,10,9,8,2,,0.00,0,,178
2013-3-10,46,42,37,43,40,33,96,87,79,30.52,30.47,30.44,10,9,7,5,2,,0.02,7,Rain,153
2013-3-11,51,46,41,47,43,40,97,89,71,30.47,30.34,30.19,10,8,5,6,1,,0.04,8,Rain,350
2013-3-12,55,52,48,50,48,45,96,84,69,30.17,30.13,30.09,10,9,2,15,8,26,0.03,8,Rain,152
2013-3-13,54,52,50,52,49,48,100,91,83,30.22,30.17,30.11,10,8,5,12,6,,0.12,7,Rain,145
2013-3-14,54,50,48,50,48,43,100,91,71,30.18,30.10,30.04,10,7,2,9,3,,0.07,7,Rain,150
2013-3-15,59,52,48,50,48,45,100,88,65,30.23,30.19,30.15,10,10,4,10,5,16,0.00,8,Rain,152
2013-3-16,52,46,42,45,41,34,90,79,65,30.16,30.03,29.92,10,9,2,16,8,30,0.10,7,Rain,173
2013-3-17,48,44,39,35,33,31,81,69,54,30.22,30.17,30.02,10,10,10,16,8,25,0.00,7,,173
2013-3-18,53,46,39,37,33,26,79,66,37,30.26,30.21,30.16,10,10,10,16,9,23,0.00,5,,175
2013-3-19,55,45,35,41,35,25,92,76,30,30.24,29.97,29.62,10,9,4,14,3,22,0.24,4,Rain,101
2013-3-20,52,46,41,47,40,30,93,78,62,30.05,29.68,29.42,10,9,4,24,9,37,0.33,6,Rain,175
2013-3-21,48,40,35,39,34,31,100,82,56,30.25,30.18,30.06,10,9,3,15,7,23,0.13,8,Rain,150
2013-3-22,46,40,34,34,32,24,96,80,42,30.41,30.31,30.23,10,10,10,7,3,,0.00,4,,85
2013-3-23,50,40,33,30,28,24,89,65,38,30.42,30.38,30.32,10,10,10,6,3,,0.00,0,,58
2013-3-24,55,42,30,37,31,27,89,68,37,30.32,30.24,30.14,10,10,10,9,2,,0.00,4,,317
2013-3-25,61,48,36,36,32,27,89,56,30,30.14,30.04,29.95,10,10,10,10,4,,0.00,2,,316
2013-3-26,60,53,46,43,40,37,80,64,46,30.04,30.00,29.98,10,10,10,7,3,,0.00,6,,318
2013-3-27,55,50,45,48,43,37,97,77,61,30.01,29.98,29.96,10,10,5,8,4,,0.03,6,Rain,322
2013-3-28,61,52,44,48,46,43,100,83,53,30.17,30.09,30.02,10,10,7,6,1,,0.03,6,Rain,1
2013-3-29,64,54,45,48,45,42,96,75,46,30.27,30.23,30.18,10,10,10,8,3,,0.00,3,,319
2013-3-30,66,52,41,47,44,39,93,73,48,30.27,30.20,30.09,10,10,10,14,6,,0.00,0,,316
2013-3-31,69,56,43,48,44,40,93,66,40,30.08,30.01,29.93,10,10,9,9,6,,0.00,0,,309